sensor_id;sensor_type;location;lat;lon;timestamp;P1;durP1;ratioP1;P2;durP2;ratioP2
40793;SDS011;26502;51.886;15.604;2023-03-11T00:02:19;5.00;;;3.30;;
40793;SDS011;26502;51.886;15.604;2023-03-11T00:07:25;1.40;;;1.30;;
40793;SDS011;26502;51.886;15.604;2023-03-11T00:12:31;2.20;;;1.60;;
40793;SDS011;26502;51.886;15.604;2023-03-11T00:17:37;2.10;;;1.50;;
40793;SDS011;26502;51.886;15.604;2023-03-11T00:22:43;1.80;;;1.20;;
40793;SDS011;26502;51.886;15.604;2023-03-11T00:27:51;1.30;;;1.00;;
40793;SDS011;26502;51.886;15.604;2023-03-11T00:32:57;0.90;;;0.70;;
40793;SDS011;26502;51.886;15.604;2023-03-11T00:38:04;0.90;;;0.60;;
40793;SDS011;26502;51.886;15.604;2023-03-11T00:43:12;1.30;;;1.10;;
40793;SDS011;26502;51.886;15.604;2023-03-11T00:48:18;2.00;;;1.20;;
40793;SDS011;26502;51.886;15.604;2023-03-11T00:53:24;4.00;;;2.10;;
40793;SDS011;26502;51.886;15.604;2023-03-11T00:58:30;1.20;;;1.10;;
40793;SDS011;26502;51.886;15.604;2023-03-11T01:03:38;1.00;;;0.90;;
40793;SDS011;26502;51.886;15.604;2023-03-11T01:08:47;1.80;;;1.20;;
40793;SDS011;26502;51.886;15.604;2023-03-11T01:13:53;0.80;;;0.70;;
40793;SDS011;26502;51.886;15.604;2023-03-11T01:18:59;2.30;;;0.60;;
40793;SDS011;26502;51.886;15.604;2023-03-11T01:24:05;2.50;;;0.90;;
40793;SDS011;26502;51.886;15.604;2023-03-11T01:29:11;0.40;;;0.40;;
40793;SDS011;26502;51.886;15.604;2023-03-11T01:34:17;0.50;;;0.50;;
40793;SDS011;26502;51.886;15.604;2023-03-11T01:39:24;1.10;;;0.70;;
40793;SDS011;26502;51.886;15.604;2023-03-11T01:44:30;0.40;;;0.30;;
40793;SDS011;26502;51.886;15.604;2023-03-11T01:49:36;0.10;;;0.10;;
40793;SDS011;26502;51.886;15.604;2023-03-11T01:54:44;0.10;;;0.10;;
40793;SDS011;26502;51.886;15.604;2023-03-11T01:59:51;0.10;;;0.10;;
40793;SDS011;26502;51.886;15.604;2023-03-11T02:05:03;0.20;;;0.20;;
40793;SDS011;26502;51.886;15.604;2023-03-11T02:10:11;0.10;;;0.10;;
40793;SDS011;26502;51.886;15.604;2023-03-11T02:15:18;0.20;;;0.20;;
40793;SDS011;26502;51.886;15.604;2023-03-11T02:20:28;0.20;;;0.20;;
40793;SDS011;26502;51.886;15.604;2023-03-11T02:25:50;0.30;;;0.10;;
40793;SDS011;26502;51.886;15.604;2023-03-11T02:31:01;0.20;;;0.20;;
40793;SDS011;26502;51.886;15.604;2023-03-11T02:36:11;0.30;;;0.30;;
40793;SDS011;26502;51.886;15.604;2023-03-11T02:41:35;0.80;;;0.30;;
40793;SDS011;26502;51.886;15.604;2023-03-11T02:46:43;0.30;;;0.30;;
40793;SDS011;26502;51.886;15.604;2023-03-11T02:51:50;0.20;;;0.20;;
40793;SDS011;26502;51.886;15.604;2023-03-11T02:56:56;0.40;;;0.20;;
40793;SDS011;26502;51.886;15.604;2023-03-11T03:02:03;0.20;;;0.10;;
40793;SDS011;26502;51.886;15.604;2023-03-11T03:07:10;0.60;;;0.30;;
40793;SDS011;26502;51.886;15.604;2023-03-11T03:12:16;0.10;;;0.10;;
40793;SDS011;26502;51.886;15.604;2023-03-11T03:17:22;0.20;;;0.20;;
40793;SDS011;26502;51.886;15.604;2023-03-11T03:22:29;1.50;;;0.30;;
40793;SDS011;26502;51.886;15.604;2023-03-11T03:27:35;0.30;;;0.30;;
40793;SDS011;26502;51.886;15.604;2023-03-11T03:32:42;0.40;;;0.40;;
40793;SDS011;26502;51.886;15.604;2023-03-11T03:37:51;0.20;;;0.20;;
40793;SDS011;26502;51.886;15.604;2023-03-11T03:42:58;0.90;;;0.30;;
40793;SDS011;26502;51.886;15.604;2023-03-11T03:48:05;4.40;;;0.20;;
40793;SDS011;26502;51.886;15.604;2023-03-11T03:53:15;0.20;;;0.20;;
40793;SDS011;26502;51.886;15.604;2023-03-11T03:58:22;0.30;;;0.30;;
40793;SDS011;26502;51.886;15.604;2023-03-11T04:03:28;1.80;;;0.40;;
40793;SDS011;26502;51.886;15.604;2023-03-11T04:08:39;0.20;;;0.20;;
40793;SDS011;26502;51.886;15.604;2023-03-11T04:13:45;0.40;;;0.40;;
40793;SDS011;26502;51.886;15.604;2023-03-11T04:18:52;0.30;;;0.30;;
40793;SDS011;26502;51.886;15.604;2023-03-11T04:23:58;0.50;;;0.50;;
40793;SDS011;26502;51.886;15.604;2023-03-11T04:29:09;0.60;;;0.60;;
40793;SDS011;26502;51.886;15.604;2023-03-11T04:34:18;1.20;;;0.90;;
40793;SDS011;26502;51.886;15.604;2023-03-11T04:39:25;1.30;;;1.10;;
40793;SDS011;26502;51.886;15.604;2023-03-11T04:44:33;1.00;;;0.90;;
40793;SDS011;26502;51.886;15.604;2023-03-11T04:49:40;1.40;;;1.30;;
40793;SDS011;26502;51.886;15.604;2023-03-11T04:54:47;1.60;;;1.50;;
40793;SDS011;26502;51.886;15.604;2023-03-11T04:59:53;1.70;;;1.50;;
40793;SDS011;26502;51.886;15.604;2023-03-11T05:05:00;2.40;;;2.10;;
40793;SDS011;26502;51.886;15.604;2023-03-11T05:10:08;2.30;;;2.10;;
40793;SDS011;26502;51.886;15.604;2023-03-11T05:15:16;3.10;;;2.50;;
40793;SDS011;26502;51.886;15.604;2023-03-11T05:20:23;4.50;;;3.80;;
40793;SDS011;26502;51.886;15.604;2023-03-11T05:25:29;3.70;;;3.40;;
40793;SDS011;26502;51.886;15.604;2023-03-11T05:30:35;4.80;;;4.00;;
40793;SDS011;26502;51.886;15.604;2023-03-11T05:35:41;3.80;;;3.50;;
40793;SDS011;26502;51.886;15.604;2023-03-11T05:40:47;4.70;;;4.10;;
40793;SDS011;26502;51.886;15.604;2023-03-11T05:45:53;4.60;;;4.10;;
40793;SDS011;26502;51.886;15.604;2023-03-11T05:51:00;4.60;;;4.10;;
40793;SDS011;26502;51.886;15.604;2023-03-11T05:56:09;3.80;;;3.40;;
40793;SDS011;26502;51.886;15.604;2023-03-11T06:01:16;4.70;;;4.20;;
40793;SDS011;26502;51.886;15.604;2023-03-11T06:06:24;4.30;;;3.70;;
40793;SDS011;26502;51.886;15.604;2023-03-11T06:11:30;3.40;;;2.90;;
40793;SDS011;26502;51.886;15.604;2023-03-11T06:16:36;3.40;;;3.10;;
40793;SDS011;26502;51.886;15.604;2023-03-11T06:21:45;2.60;;;2.40;;
40793;SDS011;26502;51.886;15.604;2023-03-11T06:26:53;2.50;;;2.30;;
40793;SDS011;26502;51.886;15.604;2023-03-11T06:32:00;2.40;;;2.20;;
40793;SDS011;26502;51.886;15.604;2023-03-11T06:37:07;2.40;;;2.00;;
40793;SDS011;26502;51.886;15.604;2023-03-11T06:42:16;2.00;;;1.80;;
40793;SDS011;26502;51.886;15.604;2023-03-11T06:47:22;1.80;;;1.70;;
40793;SDS011;26502;51.886;15.604;2023-03-11T06:52:29;2.50;;;1.70;;
40793;SDS011;26502;51.886;15.604;2023-03-11T06:57:35;2.40;;;2.10;;
40793;SDS011;26502;51.886;15.604;2023-03-11T07:02:43;1.70;;;1.60;;
40793;SDS011;26502;51.886;15.604;2023-03-11T07:07:53;2.30;;;2.10;;
40793;SDS011;26502;51.886;15.604;2023-03-11T07:13:00;2.70;;;2.50;;
40793;SDS011;26502;51.886;15.604;2023-03-11T07:18:07;4.10;;;2.50;;
40793;SDS011;26502;51.886;15.604;2023-03-11T07:23:13;3.30;;;2.10;;
40793;SDS011;26502;51.886;15.604;2023-03-11T07:28:19;3.00;;;2.10;;
40793;SDS011;26502;51.886;15.604;2023-03-11T07:33:25;2.10;;;2.00;;
40793;SDS011;26502;51.886;15.604;2023-03-11T07:38:31;2.40;;;2.00;;
40793;SDS011;26502;51.886;15.604;2023-03-11T07:43:38;2.90;;;2.50;;
40793;SDS011;26502;51.886;15.604;2023-03-11T07:48:44;2.30;;;2.10;;
40793;SDS011;26502;51.886;15.604;2023-03-11T07:53:50;2.90;;;2.00;;
40793;SDS011;26502;51.886;15.604;2023-03-11T07:58:58;2.30;;;2.10;;
40793;SDS011;26502;51.886;15.604;2023-03-11T08:04:07;3.00;;;2.70;;
40793;SDS011;26502;51.886;15.604;2023-03-11T08:09:14;4.00;;;2.60;;
40793;SDS011;26502;51.886;15.604;2023-03-11T08:14:20;4.30;;;2.80;;
40793;SDS011;26502;51.886;15.604;2023-03-11T08:19:27;4.00;;;3.20;;
40793;SDS011;26502;51.886;15.604;2023-03-11T08:29:39;4.60;;;3.00;;
40793;SDS011;26502;51.886;15.604;2023-03-11T08:34:45;3.60;;;2.70;;
40793;SDS011;26502;51.886;15.604;2023-03-11T08:39:51;5.40;;;3.70;;
40793;SDS011;26502;51.886;15.604;2023-03-11T08:44:57;5.50;;;2.80;;
40793;SDS011;26502;51.886;15.604;2023-03-11T08:50:04;3.90;;;2.70;;
40793;SDS011;26502;51.886;15.604;2023-03-11T08:55:13;5.30;;;3.30;;
40793;SDS011;26502;51.886;15.604;2023-03-11T09:00:25;4.00;;;3.00;;
40793;SDS011;26502;51.886;15.604;2023-03-11T09:05:31;4.50;;;2.70;;
40793;SDS011;26502;51.886;15.604;2023-03-11T09:10:37;7.10;;;3.30;;
40793;SDS011;26502;51.886;15.604;2023-03-11T09:15:43;5.80;;;3.30;;
40793;SDS011;26502;51.886;15.604;2023-03-11T09:20:49;5.10;;;3.30;;
40793;SDS011;26502;51.886;15.604;2023-03-11T09:26:00;4.10;;;2.70;;
40793;SDS011;26502;51.886;15.604;2023-03-11T09:31:06;5.40;;;2.70;;
40793;SDS011;26502;51.886;15.604;2023-03-11T09:36:13;3.20;;;2.50;;
40793;SDS011;26502;51.886;15.604;2023-03-11T09:41:25;4.00;;;2.90;;
40793;SDS011;26502;51.886;15.604;2023-03-11T09:52:13;5.00;;;3.20;;
40793;SDS011;26502;51.886;15.604;2023-03-11T09:57:23;5.70;;;3.60;;
40793;SDS011;26502;51.886;15.604;2023-03-11T10:02:31;4.80;;;3.20;;
40793;SDS011;26502;51.886;15.604;2023-03-11T10:12:50;5.50;;;3.70;;
40793;SDS011;26502;51.886;15.604;2023-03-11T10:23:48;4.20;;;3.10;;
40793;SDS011;26502;51.886;15.604;2023-03-11T10:29:09;5.60;;;3.70;;
40793;SDS011;26502;51.886;15.604;2023-03-11T10:34:25;5.00;;;3.60;;
40793;SDS011;26502;51.886;15.604;2023-03-11T10:39:34;4.90;;;3.20;;
40793;SDS011;26502;51.886;15.604;2023-03-11T10:44:43;3.90;;;3.30;;
40793;SDS011;26502;51.886;15.604;2023-03-11T10:49:49;3.40;;;2.60;;
40793;SDS011;26502;51.886;15.604;2023-03-11T10:54:59;3.50;;;2.80;;
40793;SDS011;26502;51.886;15.604;2023-03-11T11:00:07;4.60;;;3.10;;
40793;SDS011;26502;51.886;15.604;2023-03-11T11:05:24;3.70;;;3.00;;
40793;SDS011;26502;51.886;15.604;2023-03-11T11:10:35;3.90;;;2.80;;
40793;SDS011;26502;51.886;15.604;2023-03-11T11:15:53;4.10;;;3.00;;
40793;SDS011;26502;51.886;15.604;2023-03-11T11:21:01;4.70;;;2.70;;
40793;SDS011;26502;51.886;15.604;2023-03-11T11:26:15;4.50;;;2.70;;
40793;SDS011;26502;51.886;15.604;2023-03-11T11:31:24;5.20;;;2.90;;
40793;SDS011;26502;51.886;15.604;2023-03-11T11:36:31;3.20;;;2.70;;
40793;SDS011;26502;51.886;15.604;2023-03-11T11:41:40;5.40;;;3.10;;
40793;SDS011;26502;51.886;15.604;2023-03-11T11:46:50;4.10;;;3.20;;
40793;SDS011;26502;51.886;15.604;2023-03-11T11:52:02;5.60;;;3.10;;
40793;SDS011;26502;51.886;15.604;2023-03-11T11:57:13;5.20;;;3.20;;
40793;SDS011;26502;51.886;15.604;2023-03-11T12:02:26;4.70;;;2.70;;
40793;SDS011;26502;51.886;15.604;2023-03-11T12:07:50;3.90;;;2.60;;
40793;SDS011;26502;51.886;15.604;2023-03-11T12:13:15;3.40;;;2.60;;
40793;SDS011;26502;51.886;15.604;2023-03-11T12:18:44;4.60;;;2.70;;
40793;SDS011;26502;51.886;15.604;2023-03-11T12:23:59;3.60;;;2.30;;
40793;SDS011;26502;51.886;15.604;2023-03-11T12:29:19;3.30;;;2.50;;
40793;SDS011;26502;51.886;15.604;2023-03-11T12:34:32;4.20;;;2.40;;
40793;SDS011;26502;51.886;15.604;2023-03-11T12:39:39;4.40;;;2.20;;
40793;SDS011;26502;51.886;15.604;2023-03-11T12:44:45;3.60;;;2.40;;
40793;SDS011;26502;51.886;15.604;2023-03-11T12:49:53;2.60;;;2.40;;
40793;SDS011;26502;51.886;15.604;2023-03-11T13:00:45;6.00;;;2.40;;
40793;SDS011;26502;51.886;15.604;2023-03-11T13:06:09;3.60;;;2.20;;
40793;SDS011;26502;51.886;15.604;2023-03-11T13:11:40;3.30;;;2.50;;
40793;SDS011;26502;51.886;15.604;2023-03-11T13:16:48;4.50;;;2.60;;
40793;SDS011;26502;51.886;15.604;2023-03-11T13:21:54;4.30;;;2.40;;
40793;SDS011;26502;51.886;15.604;2023-03-11T13:27:03;3.70;;;2.40;;
40793;SDS011;26502;51.886;15.604;2023-03-11T13:37:46;3.30;;;2.20;;
40793;SDS011;26502;51.886;15.604;2023-03-11T13:43:03;4.20;;;2.50;;
40793;SDS011;26502;51.886;15.604;2023-03-11T13:48:14;4.20;;;2.60;;
40793;SDS011;26502;51.886;15.604;2023-03-11T13:53:24;7.20;;;2.20;;
40793;SDS011;26502;51.886;15.604;2023-03-11T13:58:35;3.30;;;2.20;;
40793;SDS011;26502;51.886;15.604;2023-03-11T14:03:41;3.10;;;2.40;;
40793;SDS011;26502;51.886;15.604;2023-03-11T14:08:57;4.10;;;2.40;;
40793;SDS011;26502;51.886;15.604;2023-03-11T14:14:15;5.10;;;2.70;;
40793;SDS011;26502;51.886;15.604;2023-03-11T14:19:35;5.50;;;2.80;;
40793;SDS011;26502;51.886;15.604;2023-03-11T14:24:45;4.30;;;2.30;;
40793;SDS011;26502;51.886;15.604;2023-03-11T14:29:52;4.90;;;2.20;;
40793;SDS011;26502;51.886;15.604;2023-03-11T14:34:59;5.00;;;2.40;;
40793;SDS011;26502;51.886;15.604;2023-03-11T14:40:22;5.10;;;2.50;;
40793;SDS011;26502;51.886;15.604;2023-03-11T14:45:31;4.00;;;2.10;;
40793;SDS011;26502;51.886;15.604;2023-03-11T14:50:39;4.30;;;2.50;;
40793;SDS011;26502;51.886;15.604;2023-03-11T14:55:53;2.80;;;2.00;;
40793;SDS011;26502;51.886;15.604;2023-03-11T15:01:02;3.80;;;2.30;;
40793;SDS011;26502;51.886;15.604;2023-03-11T15:06:14;4.30;;;2.30;;
40793;SDS011;26502;51.886;15.604;2023-03-11T15:11:22;3.60;;;2.30;;
40793;SDS011;26502;51.886;15.604;2023-03-11T15:16:31;5.80;;;2.70;;
40793;SDS011;26502;51.886;15.604;2023-03-11T15:21:39;2.70;;;2.10;;
40793;SDS011;26502;51.886;15.604;2023-03-11T15:26:55;3.80;;;2.40;;
40793;SDS011;26502;51.886;15.604;2023-03-11T15:37:40;3.60;;;2.40;;
40793;SDS011;26502;51.886;15.604;2023-03-11T15:42:47;4.00;;;2.20;;
40793;SDS011;26502;51.886;15.604;2023-03-11T15:48:07;5.10;;;2.60;;
40793;SDS011;26502;51.886;15.604;2023-03-11T15:53:14;3.20;;;2.10;;
40793;SDS011;26502;51.886;15.604;2023-03-11T15:58:20;4.20;;;2.60;;
40793;SDS011;26502;51.886;15.604;2023-03-11T16:03:27;9.10;;;3.50;;
40793;SDS011;26502;51.886;15.604;2023-03-11T16:08:32;3.70;;;2.40;;
40793;SDS011;26502;51.886;15.604;2023-03-11T16:13:38;4.30;;;2.70;;
40793;SDS011;26502;51.886;15.604;2023-03-11T16:18:44;3.80;;;2.20;;
40793;SDS011;26502;51.886;15.604;2023-03-11T16:23:50;5.40;;;2.90;;
40793;SDS011;26502;51.886;15.604;2023-03-11T16:28:57;4.70;;;2.60;;
40793;SDS011;26502;51.886;15.604;2023-03-11T16:34:03;3.90;;;2.80;;
40793;SDS011;26502;51.886;15.604;2023-03-11T16:39:09;4.30;;;2.40;;
40793;SDS011;26502;51.886;15.604;2023-03-11T16:44:16;5.10;;;3.50;;
40793;SDS011;26502;51.886;15.604;2023-03-11T16:49:23;6.20;;;3.60;;
40793;SDS011;26502;51.886;15.604;2023-03-11T16:54:29;5.20;;;4.20;;
40793;SDS011;26502;51.886;15.604;2023-03-11T16:59:34;15.60;;;10.90;;
40793;SDS011;26502;51.886;15.604;2023-03-11T17:04:40;30.90;;;19.50;;
40793;SDS011;26502;51.886;15.604;2023-03-11T17:09:46;10.10;;;9.00;;
40793;SDS011;26502;51.886;15.604;2023-03-11T17:14:52;10.20;;;7.10;;
40793;SDS011;26502;51.886;15.604;2023-03-11T17:19:59;23.00;;;12.00;;
40793;SDS011;26502;51.886;15.604;2023-03-11T17:25:06;36.60;;;17.70;;
40793;SDS011;26502;51.886;15.604;2023-03-11T17:30:13;19.90;;;9.60;;
40793;SDS011;26502;51.886;15.604;2023-03-11T17:35:20;27.20;;;12.50;;
40793;SDS011;26502;51.886;15.604;2023-03-11T17:40:26;68.90;;;25.60;;
40793;SDS011;26502;51.886;15.604;2023-03-11T17:45:33;69.00;;;23.20;;
40793;SDS011;26502;51.886;15.604;2023-03-11T17:50:42;70.10;;;23.40;;
40793;SDS011;26502;51.886;15.604;2023-03-11T17:55:48;38.70;;;16.00;;
40793;SDS011;26502;51.886;15.604;2023-03-11T18:00:54;15.30;;;8.10;;
40793;SDS011;26502;51.886;15.604;2023-03-11T18:06:01;19.30;;;9.20;;
40793;SDS011;26502;51.886;15.604;2023-03-11T18:11:10;14.70;;;8.40;;
40793;SDS011;26502;51.886;15.604;2023-03-11T18:16:18;11.70;;;8.90;;
40793;SDS011;26502;51.886;15.604;2023-03-11T18:21:27;50.80;;;33.80;;
40793;SDS011;26502;51.886;15.604;2023-03-11T18:26:34;23.20;;;10.40;;
40793;SDS011;26502;51.886;15.604;2023-03-11T18:31:41;27.20;;;11.90;;
40793;SDS011;26502;51.886;15.604;2023-03-11T18:36:47;37.20;;;17.70;;
40793;SDS011;26502;51.886;15.604;2023-03-11T18:41:53;29.50;;;12.00;;
40793;SDS011;26502;51.886;15.604;2023-03-11T18:46:59;12.90;;;7.20;;
40793;SDS011;26502;51.886;15.604;2023-03-11T18:52:06;18.40;;;10.10;;
40793;SDS011;26502;51.886;15.604;2023-03-11T18:57:12;9.40;;;6.50;;
40793;SDS011;26502;51.886;15.604;2023-03-11T19:02:18;9.60;;;6.90;;
40793;SDS011;26502;51.886;15.604;2023-03-11T19:07:25;18.30;;;8.40;;
40793;SDS011;26502;51.886;15.604;2023-03-11T19:12:32;20.50;;;10.10;;
40793;SDS011;26502;51.886;15.604;2023-03-11T19:17:39;21.60;;;12.00;;
40793;SDS011;26502;51.886;15.604;2023-03-11T19:22:45;21.90;;;10.70;;
40793;SDS011;26502;51.886;15.604;2023-03-11T19:27:51;26.10;;;14.40;;
40793;SDS011;26502;51.886;15.604;2023-03-11T19:32:58;40.30;;;19.10;;
40793;SDS011;26502;51.886;15.604;2023-03-11T19:38:04;81.30;;;31.60;;
40793;SDS011;26502;51.886;15.604;2023-03-11T19:43:10;42.70;;;21.50;;
40793;SDS011;26502;51.886;15.604;2023-03-11T19:48:17;79.40;;;28.40;;
40793;SDS011;26502;51.886;15.604;2023-03-11T19:53:23;69.20;;;24.30;;
40793;SDS011;26502;51.886;15.604;2023-03-11T19:58:30;34.60;;;14.10;;
40793;SDS011;26502;51.886;15.604;2023-03-11T20:03:36;55.60;;;21.80;;
40793;SDS011;26502;51.886;15.604;2023-03-11T20:08:42;27.10;;;13.80;;
40793;SDS011;26502;51.886;15.604;2023-03-11T20:13:49;47.60;;;21.10;;
40793;SDS011;26502;51.886;15.604;2023-03-11T20:18:55;40.40;;;17.90;;
40793;SDS011;26502;51.886;15.604;2023-03-11T20:24:01;23.60;;;11.80;;
40793;SDS011;26502;51.886;15.604;2023-03-11T20:29:08;44.10;;;19.70;;
40793;SDS011;26502;51.886;15.604;2023-03-11T20:34:14;32.10;;;14.60;;
40793;SDS011;26502;51.886;15.604;2023-03-11T20:39:20;28.20;;;13.60;;
40793;SDS011;26502;51.886;15.604;2023-03-11T20:44:26;21.60;;;10.30;;
40793;SDS011;26502;51.886;15.604;2023-03-11T20:49:32;25.00;;;13.50;;
40793;SDS011;26502;51.886;15.604;2023-03-11T20:54:38;16.90;;;8.70;;
40793;SDS011;26502;51.886;15.604;2023-03-11T20:59:44;13.00;;;7.50;;
40793;SDS011;26502;51.886;15.604;2023-03-11T21:04:50;18.80;;;11.40;;
40793;SDS011;26502;51.886;15.604;2023-03-11T21:09:56;27.50;;;18.30;;
40793;SDS011;26502;51.886;15.604;2023-03-11T21:15:03;51.60;;;20.80;;
40793;SDS011;26502;51.886;15.604;2023-03-11T21:20:11;161.70;;;44.30;;
40793;SDS011;26502;51.886;15.604;2023-03-11T21:25:18;64.90;;;18.60;;
40793;SDS011;26502;51.886;15.604;2023-03-11T21:30:24;150.90;;;41.00;;
40793;SDS011;26502;51.886;15.604;2023-03-11T21:35:30;112.60;;;32.40;;
40793;SDS011;26502;51.886;15.604;2023-03-11T21:40:36;44.00;;;16.20;;
40793;SDS011;26502;51.886;15.604;2023-03-11T21:45:42;19.60;;;9.90;;
40793;SDS011;26502;51.886;15.604;2023-03-11T21:50:50;43.60;;;17.30;;
40793;SDS011;26502;51.886;15.604;2023-03-11T21:55:56;15.20;;;7.50;;
40793;SDS011;26502;51.886;15.604;2023-03-11T22:01:03;12.50;;;7.60;;
40793;SDS011;26502;51.886;15.604;2023-03-11T22:06:11;13.80;;;8.30;;
40793;SDS011;26502;51.886;15.604;2023-03-11T22:11:17;12.70;;;6.80;;
40793;SDS011;26502;51.886;15.604;2023-03-11T22:16:24;9.20;;;5.40;;
40793;SDS011;26502;51.886;15.604;2023-03-11T22:21:30;16.60;;;8.30;;
40793;SDS011;26502;51.886;15.604;2023-03-11T22:26:36;14.70;;;7.00;;
40793;SDS011;26502;51.886;15.604;2023-03-11T22:31:42;7.20;;;5.00;;
40793;SDS011;26502;51.886;15.604;2023-03-11T22:36:48;9.70;;;5.70;;
40793;SDS011;26502;51.886;15.604;2023-03-11T22:41:54;23.30;;;11.70;;
40793;SDS011;26502;51.886;15.604;2023-03-11T22:47:00;55.10;;;18.20;;
40793;SDS011;26502;51.886;15.604;2023-03-11T22:52:06;112.30;;;30.50;;
40793;SDS011;26502;51.886;15.604;2023-03-11T22:57:12;163.40;;;45.60;;
40793;SDS011;26502;51.886;15.604;2023-03-11T23:02:18;44.00;;;14.40;;
40793;SDS011;26502;51.886;15.604;2023-03-11T23:07:24;54.00;;;14.60;;
40793;SDS011;26502;51.886;15.604;2023-03-11T23:12:31;52.20;;;17.30;;
40793;SDS011;26502;51.886;15.604;2023-03-11T23:17:37;53.30;;;16.50;;
40793;SDS011;26502;51.886;15.604;2023-03-11T23:22:43;19.40;;;7.90;;
40793;SDS011;26502;51.886;15.604;2023-03-11T23:27:49;24.90;;;8.40;;
40793;SDS011;26502;51.886;15.604;2023-03-11T23:32:55;10.60;;;5.30;;
40793;SDS011;26502;51.886;15.604;2023-03-11T23:38:01;16.30;;;6.80;;
40793;SDS011;26502;51.886;15.604;2023-03-11T23:43:07;42.10;;;15.00;;
40793;SDS011;26502;51.886;15.604;2023-03-11T23:48:13;28.20;;;9.50;;
40793;SDS011;26502;51.886;15.604;2023-03-11T23:53:19;10.70;;;7.60;;
40793;SDS011;26502;51.886;15.604;2023-03-11T23:58:25;27.10;;;9.50;;
